Time;durP1;ratioP1;P1;durP2;ratioP2;P2;SDS_P1;SDS_P2;PMS_P1;PMS_P2;Temp;Humidity;BMP_temperature;BMP_pressure;BME280_temperature;BME280_humidity;BME280_pressure;Samples;Min_cycle;Max_cycle;Signal;HPM_P1;HPM_P2
2021/06/25 00:02:00;;;;;;;11.15;6.82;;;17.20;99.90;;;;;;5034892;28;20029;-75
2021/06/25 00:04:28;;;;;;;8.45;6.47;;;17.10;99.90;;;;;;5036253;28;20033;-75
2021/06/25 00:06:56;;;;;;;10.90;7.03;;;17.20;99.90;;;;;;5036401;28;20025;-74
2021/06/25 00:09:24;;;;;;;9.38;6.65;;;17.10;99.90;;;;;;5035000;28;20041;-74
2021/06/25 00:11:52;;;;;;;8.57;5.80;;;17.10;99.90;;;;;;5035291;28;20029;-75
2021/06/25 00:14:21;;;;;;;9.93;7.18;;;17.10;99.90;;;;;;5039808;28;20091;-74
2021/06/25 00:16:50;;;;;;;9.95;6.45;;;17.10;99.90;;;;;;5037125;28;20174;-74
2021/06/25 00:19:16;;;;;;;9.55;6.47;;;17.10;99.90;;;;;;5035924;28;20037;-74
2021/06/25 00:21:42;;;;;;;10.30;6.20;;;17.10;99.90;;;;;;5037710;28;20025;-74
2021/06/25 00:24:07;;;;;;;7.90;5.75;;;17.10;99.90;;;;;;5038717;28;20056;-75
2021/06/25 00:26:33;;;;;;;12.60;6.47;;;17.10;99.90;;;;;;5039270;28;20045;-75
2021/06/25 00:28:59;;;;;;;18.88;6.30;;;17.10;99.90;;;;;;5025037;28;20029;-74
2021/06/25 00:31:24;;;;;;;8.35;6.43;;;17.10;99.90;;;;;;5039005;28;20037;-74
2021/06/25 00:33:50;;;;;;;9.98;6.15;;;17.10;99.90;;;;;;5039010;28;20112;-74
2021/06/25 00:36:16;;;;;;;9.48;6.40;;;17.00;99.90;;;;;;5039462;28;20051;-74
2021/06/25 00:38:41;;;;;;;9.75;6.53;;;17.00;99.90;;;;;;5039036;28;20454;-74
2021/06/25 00:41:10;;;;;;;9.02;6.38;;;17.00;99.90;;;;;;5038569;28;20477;-74
2021/06/25 00:43:39;;;;;;;8.43;6.45;;;16.90;99.90;;;;;;5036249;28;20037;-74
2021/06/25 00:46:05;;;;;;;9.85;6.28;;;17.00;99.90;;;;;;5024981;28;20032;-74
2021/06/25 00:48:33;;;;;;;9.98;6.80;;;16.90;99.90;;;;;;5038995;28;20094;-74
2021/06/25 00:51:01;;;;;;;8.45;6.38;;;16.90;99.90;;;;;;5035070;28;20060;-74
2021/06/25 00:53:29;;;;;;;8.80;6.05;;;16.90;99.90;;;;;;5038600;28;20462;-74
2021/06/25 00:55:54;;;;;;;8.88;6.40;;;16.90;99.90;;;;;;5038722;28;20098;-74
2021/06/25 00:58:20;;;;;;;7.72;6.35;;;16.90;99.90;;;;;;5033532;28;20037;-74
2021/06/25 01:00:48;;;;;;;8.00;6.20;;;16.90;99.90;;;;;;5037562;28;20048;-74
2021/06/25 01:03:14;;;;;;;9.18;6.32;;;16.90;99.90;;;;;;5037529;28;20482;-75
2021/06/25 01:05:44;;;;;;;10.95;7.10;;;16.90;99.90;;;;;;5062518;28;20033;-75
2021/06/25 01:08:10;;;;;;;9.27;5.57;;;16.90;99.90;;;;;;5039820;28;20025;-74
2021/06/25 01:10:36;;;;;;;11.90;6.90;;;16.90;99.90;;;;;;5035309;28;20473;-74
2021/06/25 01:13:04;;;;;;;9.73;6.30;;;16.90;99.90;;;;;;5038233;28;20747;-74
2021/06/25 01:15:30;;;;;;;11.30;6.18;;;16.90;99.90;;;;;;5034050;28;20095;-74
2021/06/25 01:17:56;;;;;;;9.32;6.10;;;16.90;99.90;;;;;;5035357;28;20041;-74
2021/06/25 01:20:26;;;;;;;9.02;6.82;;;16.90;99.90;;;;;;5038690;28;20029;-74
2021/06/25 01:22:52;;;;;;;9.48;6.18;;;16.90;99.90;;;;;;5037125;28;20108;-74
2021/06/25 01:25:30;;;;;;;9.65;6.90;;;16.90;99.90;;;;;;5020612;28;20053;-74
2021/06/25 01:28:00;;;;;;;12.93;6.43;;;16.90;99.90;;;;;;5035985;28;20443;-74
2021/06/25 01:30:33;;;;;;;9.25;6.53;;;16.90;99.90;;;;;;5037187;28;20075;-75
2021/06/25 01:32:59;;;;;;;9.57;6.18;;;16.90;99.90;;;;;;5036287;28;20067;-74
2021/06/25 01:35:27;;;;;;;8.75;6.20;;;16.90;99.90;;;;;;5034118;28;20033;-74
2021/06/25 01:37:55;;;;;;;10.13;6.20;;;16.90;99.90;;;;;;5038574;28;21825;-74
2021/06/25 01:40:23;;;;;;;9.38;6.45;;;16.90;99.90;;;;;;5040289;28;20044;-74
2021/06/25 01:42:49;;;;;;;16.27;7.30;;;16.90;99.90;;;;;;5022056;28;20087;-74
2021/06/25 01:45:17;;;;;;;8.45;6.38;;;16.90;99.90;;;;;;5038242;28;20490;-74
2021/06/25 01:47:45;;;;;;;10.82;6.43;;;16.90;99.90;;;;;;5037594;28;20056;-74
2021/06/25 01:50:24;;;;;;;7.97;5.78;;;16.90;99.90;;;;;;5037387;28;20036;-74
2021/06/25 01:53:00;;;;;;;13.32;6.70;;;16.90;99.90;;;;;;5022148;28;20036;-74
2021/06/25 01:55:29;;;;;;;9.63;6.95;;;16.90;99.90;;;;;;5037230;28;20544;-75
2021/06/25 01:57:55;;;;;;;9.80;6.57;;;16.90;99.90;;;;;;5036648;28;20402;-75
2021/06/25 02:00:21;;;;;;;9.20;7.53;;;16.90;99.90;;;;;;5033192;28;20025;-76
2021/06/25 02:02:47;;;;;;;11.35;6.97;;;16.90;99.90;;;;;;5033352;28;20053;-76
2021/06/25 02:05:16;;;;;;;12.77;6.70;;;16.80;99.90;;;;;;5036001;28;20107;-76
2021/06/25 02:07:44;;;;;;;12.10;6.68;;;16.90;99.90;;;;;;5033797;28;20029;-76
2021/06/25 02:10:17;;;;;;;11.10;6.65;;;16.80;99.90;;;;;;5036516;28;20086;-76
2021/06/25 02:12:42;;;;;;;9.05;6.07;;;16.90;99.90;;;;;;5036591;28;20037;-76
2021/06/25 02:15:09;;;;;;;9.32;7.07;;;16.90;99.90;;;;;;5037374;28;20021;-76
2021/06/25 02:17:37;;;;;;;10.10;6.43;;;16.90;99.90;;;;;;5033178;28;20116;-76
2021/06/25 02:20:06;;;;;;;9.00;6.10;;;16.90;99.90;;;;;;5035812;28;20029;-75
2021/06/25 02:22:34;;;;;;;10.40;6.78;;;16.90;99.90;;;;;;5018706;28;20148;-75
2021/06/25 02:25:03;;;;;;;11.10;7.15;;;16.90;99.90;;;;;;5036087;28;20061;-75
2021/06/25 02:27:31;;;;;;;9.30;6.00;;;16.90;99.90;;;;;;5036803;28;20043;-75
2021/06/25 02:29:57;;;;;;;8.90;5.68;;;16.90;99.90;;;;;;5032807;28;20079;-75
2021/06/25 02:32:22;;;;;;;10.23;6.72;;;16.90;99.90;;;;;;5022924;28;20025;-75
2021/06/25 02:34:53;;;;;;;8.43;6.10;;;16.90;99.90;;;;;;5037697;28;20033;-75
2021/06/25 02:37:18;;;;;;;9.13;6.38;;;16.90;99.90;;;;;;5037544;28;20043;-76
2021/06/25 02:39:46;;;;;;;8.57;5.72;;;16.90;99.90;;;;;;5036720;28;20029;-75
2021/06/25 02:42:12;;;;;;;11.18;6.13;;;16.90;99.90;;;;;;5037043;28;20037;-76
2021/06/25 02:44:38;;;;;;;8.43;5.53;;;16.90;99.90;;;;;;5036737;28;20025;-76
2021/06/25 02:47:06;;;;;;;7.13;5.57;;;16.90;99.90;;;;;;5039578;28;20849;-75
2021/06/25 02:49:31;;;;;;;7.75;5.90;;;16.90;99.90;;;;;;5036364;28;20382;-76
2021/06/25 02:52:00;;;;;;;11.82;7.10;;;16.90;99.90;;;;;;5035574;28;20045;-76
2021/06/25 02:54:25;;;;;;;10.82;6.53;;;16.90;99.90;;;;;;5036687;28;20032;-76
2021/06/25 02:56:53;;;;;;;11.75;7.20;;;16.90;99.90;;;;;;5038008;28;20462;-76
2021/06/25 02:59:18;;;;;;;12.88;6.85;;;16.90;99.90;;;;;;5037388;28;20029;-76
2021/06/25 03:01:44;;;;;;;15.80;7.13;;;16.90;99.90;;;;;;5036539;28;20486;-77
2021/06/25 03:04:10;;;;;;;9.18;6.35;;;16.90;99.90;;;;;;5036584;28;20047;-76
2021/06/25 03:06:40;;;;;;;9.18;7.00;;;16.90;99.90;;;;;;5037556;28;20033;-77
2021/06/25 03:09:10;;;;;;;11.25;6.50;;;16.90;99.90;;;;;;5036458;28;20040;-77
2021/06/25 03:11:38;;;;;;;7.80;6.47;;;16.80;99.90;;;;;;5031201;28;20167;-77
2021/06/25 03:14:04;;;;;;;10.27;6.82;;;16.80;99.90;;;;;;5034520;28;20656;-76
2021/06/25 03:16:33;;;;;;;10.05;6.40;;;16.80;99.90;;;;;;5036744;28;20055;-77
2021/06/25 03:19:00;;;;;;;9.25;6.40;;;16.90;99.90;;;;;;5034872;28;20032;-77
2021/06/25 03:21:26;;;;;;;11.48;7.05;;;16.80;99.90;;;;;;5022777;28;20466;-77
2021/06/25 03:23:54;;;;;;;11.20;7.25;;;16.80;99.90;;;;;;5036609;28;20060;-77
2021/06/25 03:26:19;;;;;;;8.55;6.43;;;16.80;99.90;;;;;;5036050;28;20125;-77
2021/06/25 03:28:45;;;;;;;11.38;7.25;;;16.80;99.90;;;;;;5035806;28;20045;-77
2021/06/25 03:31:11;;;;;;;8.90;6.75;;;16.80;99.90;;;;;;5022809;28;20035;-77
2021/06/25 03:33:36;;;;;;;10.20;6.13;;;16.80;99.90;;;;;;5031798;28;20059;-77
2021/06/25 03:36:05;;;;;;;9.50;7.45;;;16.80;99.90;;;;;;5038503;28;20116;-76
2021/06/25 03:38:33;;;;;;;9.80;7.30;;;16.80;99.90;;;;;;5023099;28;20082;-77
2021/06/25 03:41:01;;;;;;;11.57;7.72;;;16.80;99.90;;;;;;5037490;28;20567;-77
2021/06/25 03:43:27;;;;;;;8.75;6.50;;;16.80;99.90;;;;;;5036329;28;20043;-77
2021/06/25 03:45:55;;;;;;;8.95;7.38;;;16.80;99.90;;;;;;5036817;28;20032;-77
2021/06/25 03:48:20;;;;;;;9.27;7.90;;;16.80;99.90;;;;;;5036523;28;20122;-77
2021/06/25 03:50:49;;;;;;;8.35;7.38;;;16.80;99.90;;;;;;5031603;28;20458;-77
2021/06/25 03:53:16;;;;;;;9.32;7.63;;;16.80;99.90;;;;;;5031999;28;20041;-77
2021/06/25 03:58:29;;;;;;;9.98;6.35;;;16.80;99.90;;;;;;5039730;28;20036;-77
2021/06/25 04:00:57;;;;;;;10.70;8.50;;;16.80;99.90;;;;;;5040738;28;20025;-76
2021/06/25 04:03:25;;;;;;;8.80;7.68;;;16.80;99.90;;;;;;5039910;28;20028;-77
2021/06/25 04:05:50;;;;;;;10.68;8.63;;;16.80;99.90;;;;;;5039150;28;20048;-77
2021/06/25 04:08:18;;;;;;;11.70;9.73;;;16.80;99.90;;;;;;5039927;28;20028;-77
2021/06/25 04:10:44;;;;;;;10.93;8.70;;;16.80;99.90;;;;;;5040242;28;20047;-77
2021/06/25 04:13:12;;;;;;;15.95;9.52;;;16.90;99.90;;;;;;5038549;28;20025;-77
2021/06/25 04:15:39;;;;;;;11.18;8.48;;;16.90;99.90;;;;;;5034528;28;20090;-77
2021/06/25 04:18:05;;;;;;;11.10;8.48;;;16.90;99.90;;;;;;5036484;28;20036;-77
2021/06/25 04:20:35;;;;;;;13.20;10.13;;;16.90;99.90;;;;;;5040369;28;20450;-77
2021/06/25 04:23:03;;;;;;;12.50;9.05;;;16.90;99.90;;;;;;5040197;28;20057;-77
2021/06/25 04:25:29;;;;;;;12.20;10.30;;;16.90;99.90;;;;;;5041090;28;20041;-77
2021/06/25 04:27:55;;;;;;;12.50;8.88;;;16.90;99.90;;;;;;5039491;28;20445;-77
2021/06/25 04:30:23;;;;;;;12.73;8.60;;;16.90;99.90;;;;;;5039120;28;20112;-77
2021/06/25 04:32:52;;;;;;;15.05;10.20;;;16.90;99.90;;;;;;5039620;28;20053;-77
2021/06/25 04:35:17;;;;;;;13.30;11.63;;;17.00;99.90;;;;;;5039642;28;20040;-77
2021/06/25 04:37:43;;;;;;;15.27;11.75;;;17.00;99.90;;;;;;5034069;28;20492;-77
2021/06/25 04:40:09;;;;;;;12.27;10.25;;;17.00;99.90;;;;;;5038077;28;20033;-77
2021/06/25 04:42:37;;;;;;;15.65;10.80;;;17.00;99.90;;;;;;5039907;28;20039;-77
2021/06/25 04:45:03;;;;;;;12.32;10.90;;;17.00;99.90;;;;;;5024562;28;20563;-77
2021/06/25 04:47:31;;;;;;;15.15;11.40;;;16.90;99.90;;;;;;5034849;28;20032;-77
2021/06/25 04:49:57;;;;;;;13.60;10.35;;;16.90;99.90;;;;;;5034197;28;20094;-77
2021/06/25 04:52:22;;;;;;;12.85;10.27;;;17.00;99.90;;;;;;5038001;28;20032;-77
2021/06/25 04:54:48;;;;;;;15.60;11.90;;;17.00;99.90;;;;;;5038584;28;20039;-77
2021/06/25 04:57:14;;;;;;;14.77;12.20;;;17.00;99.90;;;;;;5037772;28;20467;-78
2021/06/25 04:59:39;;;;;;;20.27;15.80;;;17.00;99.90;;;;;;5039009;28;21877;-77
2021/06/25 05:02:07;;;;;;;20.02;15.63;;;17.00;99.90;;;;;;5038170;28;20111;-77
2021/06/25 05:04:35;;;;;;;17.17;13.30;;;17.00;99.90;;;;;;5034159;28;20028;-78
2021/06/25 05:07:03;;;;;;;22.10;15.75;;;17.10;99.90;;;;;;5034462;28;20048;-77
2021/06/25 05:09:29;;;;;;;19.85;16.25;;;17.10;99.90;;;;;;5039005;28;20033;-77
2021/06/25 05:11:54;;;;;;;22.77;15.75;;;17.10;99.90;;;;;;5038034;28;20047;-78
2021/06/25 05:14:20;;;;;;;17.38;15.57;;;17.10;99.90;;;;;;5038330;28;20370;-78
2021/06/25 05:16:48;;;;;;;22.25;16.42;;;17.10;99.90;;;;;;5036542;28;20557;-78
2021/06/25 05:19:14;;;;;;;20.80;16.35;;;17.20;99.90;;;;;;5034210;28;20035;-77
2021/06/25 05:21:39;;;;;;;17.98;15.18;;;17.20;99.90;;;;;;5038423;28;20033;-77
2021/06/25 05:24:10;;;;;;;21.27;15.52;;;17.20;99.90;;;;;;5037326;28;20059;-77
2021/06/25 05:26:35;;;;;;;21.70;17.27;;;17.20;99.90;;;;;;5038991;28;20028;-77
2021/06/25 05:29:03;;;;;;;19.40;15.18;;;17.30;99.90;;;;;;5024025;28;20029;-76
2021/06/25 05:31:29;;;;;;;23.63;18.02;;;17.30;99.90;;;;;;5036828;28;20036;-76
2021/06/25 05:33:56;;;;;;;35.85;20.50;;;17.30;99.90;;;;;;5037586;28;20040;-77
2021/06/25 05:36:22;;;;;;;29.42;22.52;;;17.30;99.90;;;;;;5035789;28;20024;-77
2021/06/25 05:38:50;;;;;;;38.15;25.98;;;17.30;99.90;;;;;;5036857;28;20051;-77
2021/06/25 05:41:18;;;;;;;34.05;24.88;;;17.30;99.90;;;;;;5034278;28;20109;-78
2021/06/25 05:43:46;;;;;;;42.53;23.08;;;17.40;99.90;;;;;;5040249;28;20041;-77
2021/06/25 05:46:12;;;;;;;32.05;23.65;;;17.40;99.90;;;;;;5036177;28;20024;-78
2021/06/25 05:48:38;;;;;;;26.05;20.27;;;17.40;99.90;;;;;;5034135;28;20438;-77
2021/06/25 05:51:07;;;;;;;28.60;22.05;;;17.50;99.90;;;;;;5038254;28;20037;-76
2021/06/25 05:53:33;;;;;;;42.63;31.45;;;17.60;99.90;;;;;;5036451;28;20029;-74
2021/06/25 05:55:59;;;;;;;32.33;24.92;;;17.60;99.90;;;;;;5035886;28;20040;-76
2021/06/25 05:58:24;;;;;;;31.67;24.65;;;17.50;99.90;;;;;;5037119;28;20040;-78
2021/06/25 06:00:52;;;;;;;33.00;25.63;;;17.60;99.90;;;;;;5036783;28;20076;-76
2021/06/25 06:03:18;;;;;;;32.45;24.58;;;17.60;99.90;;;;;;5036599;28;20115;-75
2021/06/25 06:05:46;;;;;;;43.08;27.55;;;17.60;99.90;;;;;;5037335;28;20025;-75
2021/06/25 06:08:11;;;;;;;35.20;27.02;;;17.60;99.90;;;;;;5037632;28;20037;-74
2021/06/25 06:10:39;;;;;;;31.08;25.77;;;17.50;99.90;;;;;;5038462;28;20595;-74
2021/06/25 06:13:05;;;;;;;32.28;25.70;;;17.50;99.90;;;;;;5033102;28;20071;-75
2021/06/25 06:15:34;;;;;;;38.75;26.83;;;17.50;99.90;;;;;;5019836;28;20462;-74
2021/06/25 06:18:07;;;;;;;29.00;24.20;;;17.40;99.90;;;;;;5017192;28;20021;-74
2021/06/25 06:20:37;;;;;;;28.00;22.33;;;17.40;99.90;;;;;;5037633;28;20072;-75
2021/06/25 06:31:21;;;;;;;43.75;26.80;;;17.50;99.90;;;;;;5036954;28;20068;-74
2021/06/25 06:33:59;;;;;;;40.13;25.98;;;17.50;99.90;;;;;;5037038;28;21922;-74
2021/06/25 06:36:34;;;;;;;41.47;27.83;;;17.60;99.90;;;;;;5036670;28;20060;-74
2021/06/25 06:39:02;;;;;;;49.22;29.17;;;17.60;99.90;;;;;;5033071;28;20028;-74
2021/06/25 06:41:28;;;;;;;38.92;27.35;;;17.60;99.90;;;;;;5031746;28;20139;-74
2021/06/25 06:43:54;;;;;;;37.63;27.40;;;17.70;99.90;;;;;;5034722;28;20038;-74
2021/06/25 06:46:19;;;;;;;38.67;28.08;;;17.70;99.90;;;;;;5036609;28;20051;-74
2021/06/25 06:48:46;;;;;;;44.40;28.60;;;17.70;99.90;;;;;;5035894;28;20036;-74
2021/06/25 06:51:12;;;;;;;34.65;27.63;;;17.80;99.90;;;;;;5022422;28;20045;-74
2021/06/25 06:53:43;;;;;;;36.97;27.25;;;17.80;99.90;;;;;;5018963;28;20561;-74
2021/06/25 06:56:15;;;;;;;34.55;25.95;;;17.90;99.90;;;;;;5036009;28;20480;-74
2021/06/25 06:58:40;;;;;;;50.22;28.15;;;17.90;99.90;;;;;;5031578;28;20029;-74
2021/06/25 07:01:07;;;;;;;35.35;24.75;;;17.90;99.90;;;;;;5037313;28;20047;-74
2021/06/25 07:03:35;;;;;;;41.85;27.63;;;18.00;99.90;;;;;;5018908;28;20025;-76
2021/06/25 07:06:00;;;;;;;30.30;24.52;;;18.00;99.90;;;;;;5033559;28;20032;-76
2021/06/25 07:08:26;;;;;;;33.95;25.83;;;18.00;99.90;;;;;;5037048;28;20037;-75
2021/06/25 07:10:52;;;;;;;41.55;28.17;;;18.00;99.90;;;;;;5037666;28;20049;-75
2021/06/25 07:13:22;;;;;;;36.92;28.35;;;18.00;99.90;;;;;;5036347;28;20708;-75
2021/06/25 07:15:48;;;;;;;39.67;26.75;;;17.90;99.90;;;;;;5037194;28;20668;-75
2021/06/25 07:18:18;;;;;;;38.70;27.80;;;18.00;99.90;;;;;;5035506;28;20036;-75
2021/06/25 07:20:43;;;;;;;35.95;28.48;;;18.00;99.90;;;;;;5037043;28;20072;-77
2021/06/25 07:23:11;;;;;;;37.13;29.10;;;18.10;99.90;;;;;;5036500;28;20115;-75
2021/06/25 07:25:37;;;;;;;39.25;29.08;;;18.00;99.90;;;;;;5036591;28;20497;-75
2021/06/25 07:28:03;;;;;;;38.13;27.83;;;18.10;99.90;;;;;;5039878;28;20116;-75
2021/06/25 07:30:28;;;;;;;34.42;28.52;;;18.00;99.90;;;;;;5035909;28;20028;-75
2021/06/25 07:32:54;;;;;;;46.25;29.42;;;18.10;99.90;;;;;;5039210;28;20033;-75
2021/06/25 07:35:22;;;;;;;37.65;28.92;;;18.20;99.90;;;;;;5048283;28;20473;-78
2021/06/25 07:37:48;;;;;;;36.13;29.27;;;18.20;99.90;;;;;;5040538;28;20037;-74
2021/06/25 07:40:14;;;;;;;39.92;30.48;;;18.30;99.90;;;;;;5040144;28;20074;-75
2021/06/25 07:42:42;;;;;;;35.67;29.55;;;18.40;99.90;;;;;;5039403;28;20063;-74
2021/06/25 07:45:09;;;;;;;41.03;29.70;;;18.50;99.90;;;;;;5036027;28;20115;-74
2021/06/25 07:47:39;;;;;;;42.92;29.95;;;18.60;99.90;;;;;;5040797;28;20021;-73
2021/06/25 07:50:05;;;;;;;43.03;31.63;;;18.70;99.90;;;;;;5039346;28;20348;-74
2021/06/25 07:52:34;;;;;;;38.58;29.40;;;18.80;99.90;;;;;;5034620;28;20191;-74
2021/06/25 07:55:00;;;;;;;35.95;31.02;;;18.80;99.90;;;;;;5037198;28;20438;-77
2021/06/25 07:57:26;;;;;;;36.33;29.70;;;18.80;99.90;;;;;;5043039;28;20047;-74
2021/06/25 07:59:51;;;;;;;33.63;29.08;;;18.70;99.90;;;;;;5028289;28;21879;-74
2021/06/25 08:02:20;;;;;;;36.38;29.40;;;18.70;99.90;;;;;;5035225;28;20021;-74
2021/06/25 08:04:46;;;;;;;33.97;28.05;;;18.70;99.90;;;;;;5043055;28;20037;-77
2021/06/25 08:07:14;;;;;;;38.47;28.67;;;18.50;99.90;;;;;;5039186;28;20029;-76
2021/06/25 08:09:40;;;;;;;34.15;29.05;;;18.50;99.90;;;;;;5020033;28;20071;-77
2021/06/25 08:12:07;;;;;;;32.22;26.30;;;18.40;99.90;;;;;;5038204;28;20498;-74
2021/06/25 08:14:36;;;;;;;35.80;28.75;;;18.50;99.90;;;;;;5039542;28;20029;-75
2021/06/25 08:17:04;;;;;;;32.70;27.60;;;18.40;99.90;;;;;;5039628;28;20636;-74
2021/06/25 08:19:30;;;;;;;34.65;28.88;;;18.50;99.90;;;;;;5038379;28;20515;-76
2021/06/25 08:21:55;;;;;;;35.17;28.95;;;18.50;99.90;;;;;;5039915;28;20037;-75
2021/06/25 08:24:21;;;;;;;32.70;27.10;;;18.60;99.90;;;;;;5038052;28;20052;-75
2021/06/25 08:26:47;;;;;;;34.15;28.52;;;18.60;99.90;;;;;;5037670;28;20037;-75
2021/06/25 08:29:14;;;;;;;37.58;28.65;;;18.60;99.90;;;;;;5020188;28;20032;-74
2021/06/25 08:31:40;;;;;;;36.22;29.13;;;18.70;99.90;;;;;;5037431;28;20036;-74
2021/06/25 08:34:10;;;;;;;38.47;30.38;;;18.80;99.90;;;;;;5038080;28;20055;-74
2021/06/25 08:36:40;;;;;;;44.03;34.10;;;18.90;99.90;;;;;;5035600;28;20029;-76
2021/06/25 08:39:11;;;;;;;41.05;31.60;;;18.90;99.90;;;;;;5033802;28;20044;-76
2021/06/25 08:41:37;;;;;;;41.22;32.80;;;18.80;99.90;;;;;;5039992;28;20036;-75
2021/06/25 08:44:08;;;;;;;46.85;35.78;;;18.90;99.90;;;;;;5045388;28;20044;-76
2021/06/25 08:46:36;;;;;;;46.53;37.13;;;18.70;99.90;;;;;;5036845;28;20040;-76
2021/06/25 08:49:04;;;;;;;49.42;39.33;;;18.70;99.90;;;;;;5032914;28;20041;-76
2021/06/25 08:51:31;;;;;;;53.15;39.50;;;18.60;99.90;;;;;;5036797;28;20107;-76
2021/06/25 08:53:56;;;;;;;48.25;37.85;;;18.60;99.90;;;;;;5040350;28;20046;-76
2021/06/25 08:56:24;;;;;;;50.60;38.85;;;18.40;99.90;;;;;;5037225;28;20040;-77
2021/06/25 08:58:52;;;;;;;50.38;39.60;;;18.50;99.90;;;;;;5037566;28;20033;-76
2021/06/25 09:01:22;;;;;;;51.15;39.47;;;18.40;99.90;;;;;;5032916;28;20041;-76
2021/06/25 09:03:53;;;;;;;51.13;38.65;;;18.40;99.90;;;;;;5024018;28;20106;-78
2021/06/25 09:06:19;;;;;;;;;;;18.40;99.90;;;;;;5040495;28;20029;-77
2021/06/25 09:08:49;;;;;;;50.92;39.03;;;18.20;99.90;;;;;;5036643;28;19927;-77
2021/06/25 09:11:24;;;;;;;50.35;38.88;;;18.20;99.90;;;;;;5036801;28;20037;-78
2021/06/25 09:14:02;;;;;;;46.55;37.20;;;18.30;99.90;;;;;;5032225;28;20033;-77
2021/06/25 09:16:31;;;;;;;46.00;36.20;;;18.30;99.90;;;;;;5036453;28;20087;-77
2021/06/25 09:18:58;;;;;;;47.75;38.33;;;18.30;99.90;;;;;;5037239;28;20025;-77
2021/06/25 09:21:24;;;;;;;46.15;37.75;;;18.20;99.90;;;;;;5036809;28;20030;-77
2021/06/25 09:23:50;;;;;;;44.70;36.33;;;18.30;99.90;;;;;;4986615;28;1419935;-77
2021/06/25 09:26:16;;;;;;;41.13;33.80;;;18.30;99.90;;;;;;5038585;28;20090;-76
2021/06/25 09:28:48;;;;;;;45.90;35.47;;;18.40;99.90;;;;;;5037805;28;20025;-77
2021/06/25 09:31:13;;;;;;;43.40;34.25;;;18.50;99.90;;;;;;5037579;28;20052;-76
2021/06/25 09:33:50;;;;;;;43.13;35.90;;;18.60;99.90;;;;;;5036090;28;20041;-77
2021/06/25 09:36:25;;;;;;;41.33;34.25;;;18.70;99.90;;;;;;5037699;28;20035;-76
2021/06/25 09:38:58;;;;;;;38.17;31.67;;;18.80;99.90;;;;;;5034998;28;20036;-76
2021/06/25 09:41:24;;;;;;;40.75;32.03;;;18.80;99.90;;;;;;5055194;28;20029;-77
2021/06/25 09:43:57;;;;;;;35.58;30.17;;;18.80;99.90;;;;;;5023949;28;20094;-76
2021/06/25 09:46:48;;;;;;;36.70;29.98;;;18.90;99.90;;;;;;5034881;28;20051;-76
2021/06/25 09:49:17;;;;;;;36.00;31.20;;;19.10;99.90;;;;;;5037349;28;20549;-77
2021/06/25 09:51:56;;;;;;;39.72;32.15;;;19.10;99.90;;;;;;5033544;28;20550;-77
2021/06/25 09:54:23;;;;;;;39.13;30.85;;;19.10;99.90;;;;;;5037250;28;20037;-77
2021/06/25 10:02:25;;;;;;;34.40;27.67;;;19.30;99.90;;;;;;5037375;28;20029;-77
2021/06/25 10:04:57;;;;;;;37.35;31.73;;;19.40;99.90;;;;;;5032116;28;20032;-77
2021/06/25 10:07:26;;;;;;;38.85;30.90;;;19.40;99.90;;;;;;5036888;28;20111;-77
2021/06/25 10:09:53;;;;;;;40.17;32.30;;;19.50;99.90;;;;;;5038101;28;20713;-77
2021/06/25 10:12:19;;;;;;;38.58;30.40;;;19.60;99.90;;;;;;5020892;28;20108;-77
2021/06/25 10:14:47;;;;;;;40.22;31.08;;;19.70;99.90;;;;;;5033247;28;20036;-77
2021/06/25 10:17:13;;;;;;;36.17;30.30;;;19.80;99.90;;;;;;5034007;28;20029;-78
2021/06/25 10:19:44;;;;;;;36.53;29.23;;;19.70;99.90;;;;;;5037148;28;20561;-77
2021/06/25 10:22:10;;;;;;;35.53;29.75;;;19.80;99.90;;;;;;5038004;28;20039;-75
2021/06/25 10:24:36;;;;;;;35.35;30.10;;;19.80;99.90;;;;;;5032427;28;20143;-77
2021/06/25 10:27:03;;;;;;;35.05;30.08;;;19.80;99.90;;;;;;5051934;28;20037;-77
2021/06/25 10:29:32;;;;;;;33.03;28.13;;;19.90;99.90;;;;;;5036688;28;20059;-78
2021/06/25 10:31:57;;;;;;;35.53;28.08;;;19.90;99.90;;;;;;5015566;28;20059;-78
2021/06/25 10:34:23;;;;;;;32.75;27.05;;;20.00;99.90;;;;;;5018015;28;20049;-78
2021/06/25 10:36:51;;;;;;;35.10;29.40;;;20.10;99.90;;;;;;5038041;28;20028;-77
2021/06/25 10:39:17;;;;;;;32.30;26.65;;;20.10;99.90;;;;;;5036022;28;20032;-78
2021/06/25 10:41:52;;;;;;;30.90;26.80;;;20.10;99.90;;;;;;5036234;28;20033;-77
2021/06/25 10:44:33;;;;;;;31.02;24.30;;;20.30;99.90;;;;;;5037075;28;20033;-77
2021/06/25 10:47:17;;;;;;;32.70;27.92;;;20.40;99.90;;;;;;5037635;28;20033;-78
2021/06/25 10:49:58;;;;;;;33.50;28.42;;;20.50;99.90;;;;;;5036659;28;20155;-74
2021/06/25 10:52:25;;;;;;;32.88;28.58;;;20.60;99.90;;;;;;5037121;28;20029;-75
2021/06/25 10:55:06;;;;;;;33.47;26.92;;;20.70;99.90;;;;;;5032414;28;20037;-74
2021/06/25 10:57:33;;;;;;;33.10;26.50;;;20.80;99.90;;;;;;5037956;28;20109;-74
2021/06/25 10:59:59;;;;;;;32.30;28.75;;;20.80;99.90;;;;;;5031519;28;20078;-75
2021/06/25 11:02:46;;;;;;;30.20;25.95;;;20.90;99.90;;;;;;5031542;28;20028;-76
2021/06/25 11:05:21;;;;;;;32.65;27.40;;;20.90;99.90;;;;;;5036624;28;20108;-75
2021/06/25 11:07:48;;;;;;;29.33;25.75;;;20.90;99.90;;;;;;5036102;28;20037;-75
2021/06/25 11:10:29;;;;;;;28.27;25.23;;;20.80;99.90;;;;;;5019263;28;20039;-74
2021/06/25 11:13:13;;;;;;;26.50;22.80;;;20.80;99.90;;;;;;5037536;28;20024;-75
2021/06/25 11:15:45;;;;;;;24.45;20.67;;;20.90;99.90;;;;;;5036539;28;20061;-74
2021/06/25 11:18:24;;;;;;;27.90;22.92;;;20.90;99.90;;;;;;5036161;28;20021;-74
2021/06/25 11:20:53;;;;;;;27.65;24.48;;;21.00;99.90;;;;;;5034142;28;20028;-75
2021/06/25 11:23:25;;;;;;;30.23;26.75;;;20.90;99.90;;;;;;5035138;28;20055;-75
2021/06/25 11:26:00;;;;;;;33.40;27.30;;;20.90;99.90;;;;;;5035104;28;20056;-75
2021/06/25 11:28:40;;;;;;;31.58;27.88;;;20.80;99.90;;;;;;5034485;28;20084;-76
2021/06/25 11:31:17;;;;;;;27.88;24.10;;;20.70;99.90;;;;;;5016777;28;20029;-75
2021/06/25 11:33:59;;;;;;;25.35;22.55;;;20.50;99.90;;;;;;5036108;28;20478;-75
2021/06/25 11:36:48;;;;;;;24.75;22.02;;;20.50;99.90;;;;;;5036123;28;20415;-75
2021/06/25 11:39:24;;;;;;;27.13;23.48;;;20.50;99.90;;;;;;5035928;28;20028;-75
2021/06/25 11:42:11;;;;;;;25.33;22.08;;;20.50;99.90;;;;;;5036998;28;20021;-76
2021/06/25 11:44:42;;;;;;;25.67;22.85;;;20.40;99.90;;;;;;5032538;28;20036;-75
2021/06/25 11:47:14;;;;;;;24.03;21.53;;;20.40;99.90;;;;;;5021934;28;20037;-75
2021/06/25 11:52:25;;;;;;;22.13;18.95;;;20.50;99.90;;;;;;5034869;28;20409;-74
2021/06/25 11:54:54;;;;;;;21.35;17.67;;;20.80;99.90;;;;;;5022586;28;20029;-77
2021/06/25 11:57:30;;;;;;;19.77;16.90;;;20.90;99.90;;;;;;5030828;28;20167;-74
2021/06/25 12:00:05;;;;;;;21.10;16.70;;;21.00;99.90;;;;;;5036528;28;20447;-75
2021/06/25 12:02:53;;;;;;;18.92;16.08;;;21.00;99.90;;;;;;5034575;28;20041;-74
2021/06/25 12:05:34;;;;;;;20.40;17.85;;;21.10;99.90;;;;;;5035612;28;20036;-73
2021/06/25 12:08:00;;;;;;;17.08;15.30;;;21.30;99.90;;;;;;5036441;28;20044;-75
2021/06/25 12:10:28;;;;;;;16.10;14.32;;;21.20;99.90;;;;;;5035408;28;20394;-74
2021/06/25 12:12:58;;;;;;;17.13;14.38;;;21.30;99.90;;;;;;5034716;28;20032;-74
2021/06/25 12:15:23;;;;;;;15.23;13.38;;;21.40;99.90;;;;;;5031883;28;20032;-74
2021/06/25 12:17:53;;;;;;;17.30;14.88;;;21.40;99.90;;;;;;5016340;28;20033;-74
2021/06/25 12:20:23;;;;;;;19.52;16.63;;;21.40;99.90;;;;;;5040741;28;20060;-74
2021/06/25 12:23:05;;;;;;;15.82;13.95;;;21.50;99.90;;;;;;5039600;28;20048;-73
2021/06/25 12:25:44;;;;;;;;;;;21.50;99.90;;;;;;5035660;28;20106;-74
2021/06/25 12:28:13;;;;;;;20.90;15.93;;;21.20;95.50;;;;;;5039196;28;19928;-74
2021/06/25 12:30:44;;;;;;;14.95;13.13;;;21.20;99.90;;;;;;5040291;28;20516;-73
2021/06/25 12:33:10;;;;;;;18.05;14.75;;;21.20;99.90;;;;;;5039209;28;20075;-74
2021/06/25 12:35:48;;;;;;;17.33;15.30;;;21.20;99.90;;;;;;5034168;28;20500;-74
2021/06/25 12:38:21;;;;;;;17.98;14.13;;;21.30;99.90;;;;;;5038550;28;20410;-75
2021/06/25 12:40:51;;;;;;;16.75;14.80;;;21.50;99.90;;;;;;5038049;28;20052;-74
2021/06/25 12:43:23;;;;;;;17.65;15.23;;;21.50;99.90;;;;;;5023377;28;20029;-74
2021/06/25 12:45:51;;;;;;;15.88;14.18;;;21.70;99.90;;;;;;5039667;28;20041;-74
2021/06/25 12:48:19;;;;;;;17.02;15.27;;;21.70;99.90;;;;;;5037095;28;20039;-74
2021/06/25 12:50:45;;;;;;;18.52;16.23;;;21.70;99.90;;;;;;5038558;28;20524;-74
2021/06/25 12:53:23;;;;;;;16.70;13.70;;;21.70;99.90;;;;;;5033918;28;20037;-72
2021/06/25 12:55:49;;;;;;;15.85;14.15;;;21.70;99.90;;;;;;5039635;28;20351;-70
2021/06/25 12:58:15;;;;;;;16.08;14.13;;;21.60;99.90;;;;;;5039026;28;20021;-73
2021/06/25 13:00:44;;;;;;;14.73;13.13;;;21.70;99.90;;;;;;5035183;28;20778;-74